createdAt,value
2023-04-10T00:01:22.324Z,12.90
2023-04-10T00:04:08.985Z,13.25
2023-04-10T00:06:56.011Z,12.52
2023-04-10T00:09:42.474Z,12.35
2023-04-10T00:12:30.690Z,12.45
2023-04-10T00:15:16.994Z,12.07
2023-04-10T00:18:03.111Z,12.73
2023-04-10T00:20:49.663Z,11.55
2023-04-10T00:23:36.271Z,11.57
2023-04-10T00:26:23.889Z,11.20
2023-04-10T00:29:11.601Z,11.68
2023-04-10T00:31:58.635Z,11.38
2023-04-10T00:34:44.791Z,11.23
2023-04-10T00:37:31.241Z,11.35
2023-04-10T00:40:17.608Z,12.27
2023-04-10T00:43:03.877Z,10.65
2023-04-10T00:45:51.480Z,11.18
2023-04-10T00:48:38.532Z,10.55
2023-04-10T00:51:24.678Z,10.07
2023-04-10T00:54:12.066Z,9.93
2023-04-10T00:56:59.745Z,9.50
2023-04-10T00:59:46.410Z,10.10
2023-04-10T01:02:34.347Z,10.73
2023-04-10T01:05:20.660Z,9.18
2023-04-10T01:08:17.578Z,9.45
2023-04-10T01:11:10.438Z,9.32
2023-04-10T01:14:07.274Z,8.65
2023-04-10T01:16:58.793Z,10.13
2023-04-10T01:20:03.976Z,9.15
2023-04-10T01:23:15.962Z,9.73
2023-04-10T01:26:05.495Z,8.70
2023-04-10T01:29:01.418Z,8.90
2023-04-10T01:31:55.270Z,8.30
2023-04-10T01:34:45.819Z,9.07
2023-04-10T01:37:35.457Z,8.77
2023-04-10T01:40:22.701Z,8.68
2023-04-10T01:43:11.250Z,9.70
2023-04-10T01:46:12.206Z,8.53
2023-04-10T01:49:02.055Z,8.52
2023-04-10T01:51:50.341Z,8.43
2023-04-10T01:54:36.770Z,8.05
2023-04-10T01:57:23.305Z,8.20
2023-04-10T02:00:16.697Z,8.25
2023-04-10T02:03:04.389Z,8.07
2023-04-10T02:06:02.432Z,7.65
2023-04-10T02:08:55.883Z,7.95
2023-04-10T02:11:48.576Z,8.15
2023-04-10T02:14:39.861Z,7.38
2023-04-10T02:17:29.722Z,7.40
2023-04-10T02:23:06.639Z,6.88
2023-04-10T02:25:53.185Z,7.10
2023-04-10T02:28:40.107Z,6.72
2023-04-10T02:31:26.575Z,7.10
2023-04-10T02:34:14.034Z,7.28
2023-04-10T02:37:01.986Z,6.57
2023-04-10T02:39:49.267Z,6.65
2023-04-10T02:42:35.974Z,6.20
2023-04-10T02:45:25.472Z,6.70
2023-04-10T02:48:12.745Z,6.75
2023-04-10T02:50:59.559Z,7.00
2023-04-10T02:53:48.992Z,6.18
2023-04-10T02:56:45.753Z,7.00
2023-04-10T02:59:33.098Z,7.13
2023-04-10T03:02:21.749Z,7.22
2023-04-10T03:05:09.071Z,6.78
2023-04-10T03:07:55.647Z,6.63
2023-04-10T03:10:45.138Z,6.45
2023-04-10T03:13:31.699Z,7.00
2023-04-10T03:16:18.828Z,6.80
2023-04-10T03:19:06.032Z,7.05
2023-04-10T03:21:53.504Z,6.55
2023-04-10T03:24:39.944Z,7.30
2023-04-10T03:27:29.048Z,6.72
2023-04-10T03:30:15.455Z,5.60
2023-04-10T03:33:02.377Z,6.57
2023-04-10T03:35:49.694Z,6.70
2023-04-10T03:38:36.422Z,7.13
2023-04-10T03:41:25.401Z,7.45
2023-04-10T03:44:13.386Z,6.95
2023-04-10T03:46:59.782Z,6.72
2023-04-10T03:49:46.953Z,6.47
2023-04-10T03:52:34.008Z,6.15
2023-04-10T03:55:20.303Z,6.40
2023-04-10T03:58:08.274Z,6.30
2023-04-10T04:00:56.691Z,7.78
2023-04-10T04:03:53.891Z,6.82
2023-04-10T04:06:58.908Z,6.97
2023-04-10T04:10:20.488Z,7.90
2023-04-10T04:13:33.866Z,7.00
2023-04-10T04:16:30.936Z,7.90
2023-04-10T04:19:52.424Z,7.18
2023-04-10T04:22:58.108Z,7.55
2023-04-10T04:25:52.759Z,7.50
2023-04-10T04:28:39.093Z,7.55
2023-04-10T04:31:45.720Z,7.97
2023-04-10T04:34:58.355Z,7.95
2023-04-10T04:38:14.262Z,8.18
2023-04-10T04:41:06.948Z,8.68
2023-04-10T04:44:12.765Z,8.13
2023-04-10T04:47:24.374Z,8.32
2023-04-10T04:50:11.367Z,8.35
2023-04-10T04:53:27.098Z,8.18
2023-04-10T04:56:33.877Z,8.10
2023-04-10T04:59:39.179Z,8.68
2023-04-10T05:02:41.931Z,7.93
2023-04-10T05:05:49.403Z,8.90
2023-04-10T05:08:46.648Z,9.18
2023-04-10T05:12:03.870Z,8.23
2023-04-10T05:15:16.500Z,8.40
2023-04-10T05:18:12.584Z,8.38
2023-04-10T05:21:02.521Z,9.20
2023-04-10T05:24:18.974Z,9.02
2023-04-10T05:27:24.302Z,8.95
2023-04-10T05:30:23.140Z,8.95
2023-04-10T05:33:29.453Z,9.05
2023-04-10T05:36:28.446Z,8.82
2023-04-10T05:39:28.868Z,8.65
2023-04-10T05:42:27.735Z,8.38
2023-04-10T05:45:30.094Z,8.40
2023-04-10T05:48:41.172Z,8.63
2023-04-10T05:51:44.057Z,11.82
2023-04-10T05:54:43.510Z,8.63
2023-04-10T05:57:48.360Z,7.82
2023-04-10T06:00:58.550Z,8.23
2023-04-10T06:04:12.766Z,8.23
2023-04-10T06:06:59.969Z,8.20
2023-04-10T06:09:46.444Z,8.73
2023-04-10T06:12:33.024Z,7.60
2023-04-10T06:15:21.738Z,7.60
2023-04-10T06:18:08.399Z,7.65
2023-04-10T06:21:01.727Z,7.82
2023-04-10T06:23:48.488Z,7.57
2023-04-10T06:26:35.360Z,7.90
2023-04-10T06:29:24.490Z,7.65
2023-04-10T06:32:10.582Z,8.10
2023-04-10T06:34:59.721Z,7.70
2023-04-10T06:37:47.718Z,7.75
2023-04-10T06:40:35.110Z,7.68
2023-04-10T06:43:21.709Z,7.70
2023-04-10T06:46:08.804Z,8.80
2023-04-10T06:48:55.289Z,8.15
2023-04-10T06:51:41.949Z,8.10
2023-04-10T06:54:31.588Z,7.50
2023-04-10T06:57:18.776Z,7.43
2023-04-10T07:00:05.648Z,8.05
2023-04-10T07:02:52.303Z,7.55
2023-04-10T07:05:40.702Z,8.32
2023-04-10T07:08:28.855Z,8.40
2023-04-10T07:11:16.755Z,7.88
2023-04-10T07:14:03.326Z,8.05
2023-04-10T07:16:50.061Z,7.88
2023-04-10T07:19:39.282Z,8.10
2023-04-10T07:22:25.278Z,7.20
2023-04-10T07:25:11.803Z,7.97
2023-04-10T07:27:59.434Z,8.10
2023-04-10T07:30:46.189Z,7.78
2023-04-10T07:33:32.927Z,8.30
2023-04-10T07:36:19.501Z,7.82
2023-04-10T07:39:05.512Z,7.13
2023-04-10T07:41:54.174Z,8.07
2023-04-10T07:44:41.904Z,6.90
2023-04-10T07:47:28.401Z,7.78
2023-04-10T07:50:14.869Z,7.40
2023-04-10T07:53:03.643Z,7.22
2023-04-10T07:55:50.465Z,7.53
2023-04-10T07:58:36.624Z,7.45
2023-04-10T08:01:24.518Z,7.85
2023-04-10T08:04:11.389Z,7.38
2023-04-10T08:06:57.879Z,6.60
2023-04-10T08:09:44.303Z,7.35
2023-04-10T08:12:31.926Z,7.38
2023-04-10T08:15:18.879Z,6.47
2023-04-10T08:18:06.692Z,7.07
2023-04-10T08:20:53.337Z,6.88
2023-04-10T08:23:39.732Z,7.00
2023-04-10T08:26:27.489Z,7.43
2023-04-10T08:29:13.898Z,6.60
2023-04-10T08:32:00.956Z,7.50
2023-04-10T08:34:51.322Z,6.65
2023-04-10T08:37:38.624Z,6.78
2023-04-10T08:40:25.148Z,6.68
2023-04-10T08:43:11.817Z,6.65
2023-04-10T08:45:58.725Z,6.82
2023-04-10T08:48:49.458Z,6.90
2023-04-10T08:54:29.649Z,6.68
2023-04-10T08:57:18.372Z,7.70
2023-04-10T09:00:19.974Z,7.88
2023-04-10T09:03:11.762Z,6.68
2023-04-10T09:06:02.966Z,6.43
2023-04-10T09:08:50.610Z,7.03
2023-04-10T09:12:01.405Z,6.82
2023-04-10T09:14:49.668Z,6.55
2023-04-10T09:17:36.006Z,6.70
2023-04-10T09:20:25.536Z,6.93
2023-04-10T09:23:21.947Z,6.55
2023-04-10T09:29:03.082Z,10.98
2023-04-10T09:31:49.268Z,7.55
2023-04-10T09:34:35.569Z,7.13
2023-04-10T09:37:22.644Z,7.30
2023-04-10T09:40:21.720Z,7.13
2023-04-10T09:43:18.755Z,7.50
2023-04-10T09:46:07.019Z,8.23
2023-04-10T09:48:57.083Z,8.15
2023-04-10T09:51:43.733Z,7.00
2023-04-10T09:54:37.195Z,7.18
2023-04-10T09:57:25.736Z,6.78
2023-04-10T10:00:14.162Z,7.07
2023-04-10T10:03:06.236Z,6.85
2023-04-10T10:05:52.869Z,7.25
2023-04-10T10:08:39.303Z,6.63
2023-04-10T10:11:27.447Z,6.32
2023-04-10T10:14:19.655Z,6.38
2023-04-10T10:17:14.128Z,6.10
2023-04-10T10:20:05.614Z,6.45
2023-04-10T10:22:54.089Z,6.30
2023-04-10T10:25:40.535Z,6.65
2023-04-10T10:28:29.080Z,6.53
2023-04-10T10:31:17.551Z,6.40
2023-04-10T10:34:05.296Z,6.45
2023-04-10T10:36:53.272Z,6.28
2023-04-10T10:39:48.857Z,5.85
2023-04-10T10:42:40.085Z,5.53
2023-04-10T10:45:32.191Z,5.43
2023-04-10T10:48:18.508Z,5.93
2023-04-10T10:51:05.442Z,6.00
2023-04-10T10:53:52.846Z,5.85
2023-04-10T10:56:39.432Z,5.97
2023-04-10T10:59:56.582Z,5.85
2023-04-10T11:02:43.257Z,5.53
2023-04-10T11:05:52.348Z,5.70
2023-04-10T11:08:43.435Z,5.82
2023-04-10T11:11:31.682Z,5.65
2023-04-10T11:14:19.146Z,5.32
2023-04-10T11:17:05.906Z,5.55
2023-04-10T11:20:00.313Z,5.30
2023-04-10T11:23:09.438Z,5.35
2023-04-10T11:25:57.759Z,5.85
2023-04-10T11:28:45.337Z,6.18
2023-04-10T11:31:34.360Z,5.07
2023-04-10T11:34:21.201Z,5.50
2023-04-10T11:37:07.945Z,4.93
2023-04-10T11:40:05.331Z,4.75
2023-04-10T11:42:51.764Z,5.50
2023-04-10T11:45:39.667Z,5.10
2023-04-10T11:48:26.475Z,5.15
2023-04-10T11:51:14.503Z,4.63
2023-04-10T11:54:09.398Z,5.10
2023-04-10T11:56:59.025Z,4.68
2023-04-10T11:59:51.105Z,4.53
2023-04-10T12:02:51.467Z,4.57
2023-04-10T12:05:47.037Z,5.13
2023-04-10T12:08:36.426Z,4.68
2023-04-10T12:11:24.860Z,4.45
2023-04-10T12:14:11.590Z,4.20
2023-04-10T12:16:59.391Z,4.93
2023-04-10T12:19:48.144Z,4.70
2023-04-10T12:22:34.841Z,4.28
2023-04-10T12:25:22.522Z,4.75
2023-04-10T12:28:09.368Z,4.20
2023-04-10T12:30:55.783Z,4.55
2023-04-10T12:33:45.489Z,4.10
2023-04-10T12:36:35.149Z,4.68
2023-04-10T12:39:26.857Z,4.18
2023-04-10T12:42:14.537Z,4.57
2023-04-10T12:45:01.889Z,4.03
2023-04-10T12:47:51.605Z,3.85
2023-04-10T12:50:47.917Z,4.20
2023-04-10T12:53:44.188Z,4.10
2023-04-10T12:56:41.824Z,3.83
2023-04-10T12:59:29.135Z,3.78
2023-04-10T13:02:15.678Z,3.72
2023-04-10T13:05:02.162Z,3.70
2023-04-10T13:07:52.466Z,3.88
2023-04-10T13:10:42.059Z,3.83
2023-04-10T13:13:28.274Z,3.45
2023-04-10T13:16:14.659Z,3.38
2023-04-10T13:19:01.898Z,4.13
2023-04-10T13:21:48.358Z,3.80
2023-04-10T13:24:35.551Z,3.67
2023-04-10T13:27:23.595Z,3.88
2023-04-10T13:30:10.681Z,4.18
2023-04-10T13:32:57.214Z,4.00
2023-04-10T13:35:43.724Z,3.67
2023-04-10T13:38:30.148Z,4.10
2023-04-10T13:41:16.490Z,4.28
2023-04-10T13:44:04.330Z,4.75
2023-04-10T13:46:52.033Z,4.32
2023-04-10T13:49:38.451Z,4.38
2023-04-10T13:52:24.829Z,4.40
2023-04-10T13:55:11.548Z,3.85
2023-04-10T13:57:57.718Z,4.30
2023-04-10T14:00:45.623Z,4.55
2023-04-10T14:03:32.082Z,4.85
2023-04-10T14:06:18.767Z,4.63
2023-04-10T14:09:05.223Z,3.72
2023-04-10T14:11:51.810Z,4.88
2023-04-10T14:14:37.856Z,4.40
2023-04-10T14:17:25.604Z,4.05
2023-04-10T14:20:13.217Z,4.20
2023-04-10T14:22:59.721Z,3.83
2023-04-10T14:25:46.237Z,4.40
2023-04-10T14:28:32.820Z,3.75
2023-04-10T14:31:19.169Z,4.43
2023-04-10T14:34:07.104Z,4.50
2023-04-10T14:36:55.766Z,5.15
2023-04-10T14:39:42.276Z,6.50
2023-04-10T14:42:28.514Z,4.85
2023-04-10T14:45:15.024Z,5.50
2023-04-10T14:48:02.204Z,5.15
2023-04-10T14:50:50.219Z,5.85
2023-04-10T14:53:37.522Z,5.22
2023-04-10T14:56:23.840Z,5.18
2023-04-10T14:59:10.243Z,5.75
2023-04-10T15:01:56.843Z,5.25
2023-04-10T15:04:43.930Z,5.43
2023-04-10T15:07:31.199Z,5.57
2023-04-10T15:10:17.871Z,5.90
2023-04-10T15:13:05.187Z,7.72
2023-04-10T15:15:51.735Z,6.15
2023-04-10T15:18:38.087Z,6.50
2023-04-10T15:21:24.371Z,6.45
2023-04-10T15:24:12.278Z,6.63
2023-04-10T15:27:07.573Z,6.60
2023-04-10T15:29:54.898Z,7.07
2023-04-10T15:32:41.271Z,6.78
2023-04-10T15:35:28.768Z,7.40
2023-04-10T15:38:15.414Z,6.82
2023-04-10T15:41:08.509Z,6.95
2023-04-10T15:43:55.083Z,6.82
2023-04-10T15:46:41.686Z,7.10
2023-04-10T15:49:37.629Z,6.95
2023-04-10T15:52:24.744Z,7.90
2023-04-10T15:55:11.080Z,7.72
2023-04-10T15:58:00.970Z,7.70
2023-04-10T16:00:48.749Z,8.52
2023-04-10T16:03:35.161Z,10.00
2023-04-10T16:06:25.740Z,8.57
2023-04-10T16:09:24.234Z,8.23
2023-04-10T16:12:12.460Z,7.68
2023-04-10T16:15:00.241Z,8.35
2023-04-10T16:17:46.583Z,8.05
2023-04-10T16:20:33.186Z,9.30
2023-04-10T16:23:19.628Z,11.32
2023-04-10T16:26:06.361Z,9.27
2023-04-10T16:28:53.082Z,11.50
2023-04-10T16:31:41.680Z,10.73
2023-04-10T16:34:28.192Z,11.50
2023-04-10T16:37:14.591Z,11.48
2023-04-10T16:40:01.678Z,11.77
2023-04-10T16:42:48.005Z,12.77
2023-04-10T16:45:34.467Z,11.50
2023-04-10T16:48:22.349Z,12.60
2023-04-10T16:51:16.150Z,11.80
2023-04-10T16:54:03.649Z,11.80
2023-04-10T16:56:50.144Z,11.30
2023-04-10T16:59:36.730Z,10.70
2023-04-10T17:02:25.109Z,10.30
2023-04-10T17:05:13.642Z,10.20
2023-04-10T17:08:00.475Z,12.57
2023-04-10T17:10:46.985Z,10.63
2023-04-10T17:13:35.572Z,11.50
2023-04-10T17:16:21.683Z,11.23
2023-04-10T17:19:08.252Z,10.43
2023-04-10T17:21:56.196Z,9.38
2023-04-10T17:24:42.799Z,8.75
2023-04-10T17:27:28.978Z,8.80
2023-04-10T17:30:17.150Z,7.97
2023-04-10T17:33:03.940Z,7.28
2023-04-10T17:35:51.452Z,6.70
2023-04-10T17:38:39.596Z,6.30
2023-04-10T17:41:26.165Z,6.57
2023-04-10T17:44:12.993Z,7.00
2023-04-10T17:46:59.901Z,6.78
2023-04-10T17:49:46.371Z,6.80
2023-04-10T17:52:32.998Z,7.05
2023-04-10T17:55:21.409Z,6.13
2023-04-10T17:58:08.128Z,8.05
2023-04-10T18:00:54.506Z,7.63
2023-04-10T18:03:41.005Z,6.70
2023-04-10T18:06:27.538Z,7.57
2023-04-10T18:09:15.299Z,6.68
2023-04-10T18:12:03.122Z,6.97
2023-04-10T18:14:49.916Z,7.18
2023-04-10T18:17:39.291Z,7.45
2023-04-10T18:20:26.052Z,7.37
2023-04-10T18:23:12.217Z,6.68
2023-04-10T18:25:58.859Z,6.63
2023-04-10T18:28:46.778Z,5.65
2023-04-10T18:31:33.632Z,5.07
2023-04-10T18:34:19.980Z,5.18
2023-04-10T18:37:08.920Z,5.50
2023-04-10T18:39:58.797Z,5.40
2023-04-10T18:42:47.202Z,4.93
2023-04-10T18:45:37.770Z,4.90
2023-04-10T18:48:24.426Z,5.50
2023-04-10T18:51:11.093Z,5.75
2023-04-10T18:53:58.718Z,5.72
2023-04-10T18:56:45.013Z,5.82
2023-04-10T18:59:31.922Z,6.30
2023-04-10T19:02:20.299Z,5.93
2023-04-10T19:05:08.443Z,5.72
2023-04-10T19:08:03.675Z,6.43
2023-04-10T19:10:50.762Z,5.72
2023-04-10T19:13:37.100Z,5.90
2023-04-10T19:16:23.761Z,6.68
2023-04-10T19:19:11.438Z,5.32
2023-04-10T19:21:59.062Z,5.65
2023-04-10T19:24:45.735Z,5.43
2023-04-10T19:27:31.893Z,6.90
2023-04-10T19:30:18.441Z,5.32
2023-04-10T19:33:04.930Z,5.63
2023-04-10T19:35:52.612Z,6.30
2023-04-10T19:38:40.751Z,5.75
2023-04-10T19:41:27.831Z,6.25
2023-04-10T19:44:14.142Z,5.18
2023-04-10T19:47:00.692Z,5.43
2023-04-10T19:49:47.466Z,5.47
2023-04-10T19:52:35.142Z,5.45
2023-04-10T19:55:21.615Z,5.80
2023-04-10T19:58:10.873Z,6.00
2023-04-10T20:01:08.643Z,6.43
2023-04-10T20:03:55.410Z,6.25
2023-04-10T20:06:43.069Z,6.07
2023-04-10T20:09:30.609Z,6.30
2023-04-10T20:12:17.242Z,6.28
2023-04-10T20:15:04.656Z,6.80
2023-04-10T20:17:50.837Z,6.82
2023-04-10T20:20:37.082Z,6.30
2023-04-10T20:23:23.522Z,7.60
2023-04-10T20:26:12.143Z,6.28
2023-04-10T20:28:58.910Z,6.97
2023-04-10T20:31:45.275Z,6.72
2023-04-10T20:34:31.627Z,6.72
2023-04-10T20:37:21.741Z,6.10
2023-04-10T20:40:09.828Z,6.88
2023-04-10T20:42:57.529Z,6.35
2023-04-10T20:45:43.767Z,6.20
2023-04-10T20:48:30.384Z,6.10
2023-04-10T20:51:16.896Z,6.35
2023-04-10T20:54:04.436Z,6.57
2023-04-10T20:56:50.621Z,6.63
2023-04-10T20:59:38.476Z,6.18
2023-04-10T21:02:25.051Z,7.03
2023-04-10T21:05:11.934Z,6.82
2023-04-10T21:07:58.544Z,7.10
2023-04-10T21:10:45.190Z,6.38
2023-04-10T21:13:31.654Z,7.47
2023-04-10T21:16:19.465Z,6.18
2023-04-10T21:19:06.056Z,7.30
2023-04-10T21:21:52.344Z,6.65
2023-04-10T21:24:38.885Z,7.13
2023-04-10T21:27:25.362Z,5.97
2023-04-10T21:30:12.456Z,6.65
2023-04-10T21:33:00.055Z,6.55
2023-04-10T21:35:46.538Z,6.50
2023-04-10T21:38:33.700Z,6.22
2023-04-10T21:41:20.768Z,5.90
2023-04-10T21:44:07.769Z,6.50
2023-04-10T21:46:54.275Z,6.35
2023-04-10T21:49:41.701Z,6.68
2023-04-10T21:52:28.077Z,5.90
2023-04-10T21:55:15.822Z,6.20
2023-04-10T21:58:02.047Z,6.07
2023-04-10T22:00:49.909Z,5.82
2023-04-10T22:03:36.582Z,5.03
2023-04-10T22:06:24.400Z,5.22
2023-04-10T22:09:10.714Z,4.90
2023-04-10T22:11:56.864Z,5.32
2023-04-10T22:14:43.270Z,3.33
2023-04-10T22:17:30.000Z,1.95
2023-04-10T22:20:17.164Z,1.90
2023-04-10T22:23:05.382Z,1.58
2023-04-10T22:25:51.662Z,1.17
2023-04-10T22:28:37.909Z,1.83
2023-04-10T22:31:24.177Z,1.15
2023-04-10T22:34:10.655Z,2.50
2023-04-10T22:36:57.654Z,1.55
2023-04-10T22:39:45.435Z,1.77
2023-04-10T22:42:32.069Z,1.30
2023-04-10T22:45:18.576Z,1.40
2023-04-10T22:48:04.974Z,1.15
2023-04-10T22:50:51.156Z,2.10
2023-04-10T22:53:37.640Z,1.70
2023-04-10T22:56:26.728Z,1.30
2023-04-10T22:59:13.444Z,1.60
2023-04-10T23:01:59.871Z,2.05
2023-04-10T23:04:46.096Z,1.38
2023-04-10T23:07:32.632Z,1.75
2023-04-10T23:10:19.097Z,2.08
2023-04-10T23:13:06.790Z,2.35
2023-04-10T23:15:53.967Z,1.88
2023-04-10T23:18:40.579Z,2.05
2023-04-10T23:21:27.370Z,2.92
2023-04-10T23:24:13.679Z,3.35
2023-04-10T23:27:00.226Z,3.00
2023-04-10T23:29:47.745Z,3.38
2023-04-10T23:32:34.437Z,3.53
2023-04-10T23:35:20.926Z,4.50
2023-04-10T23:38:07.141Z,5.05
2023-04-10T23:40:53.510Z,4.78
2023-04-10T23:43:39.888Z,6.35
2023-04-10T23:46:27.664Z,6.22
2023-04-10T23:49:13.884Z,5.47
2023-04-10T23:52:04.631Z,7.38
2023-04-10T23:54:50.978Z,8.40
2023-04-10T23:57:37.354Z,7.00
